createdAt,value
2022-09-26T04:00:29.454Z,99.99
2022-09-26T04:05:29.385Z,99.99
2022-09-26T04:10:29.332Z,99.99
2022-09-26T04:15:36.366Z,99.99
2022-09-26T04:20:29.220Z,99.99
2022-09-26T04:25:29.167Z,99.99
2022-09-26T04:30:29.182Z,99.99
2022-09-26T04:35:29.084Z,99.99
2022-09-26T04:40:29.063Z,99.99
2022-09-26T04:45:29.016Z,99.99
2022-09-26T04:50:28.897Z,99.99
2022-09-26T04:55:28.865Z,99.99
2022-09-26T05:00:28.796Z,99.99
2022-09-26T05:05:28.745Z,99.99
2022-09-26T05:10:28.667Z,99.99
2022-09-26T05:15:28.644Z,99.99
2022-09-26T05:20:28.573Z,99.99
2022-09-26T05:25:28.525Z,99.99
2022-09-26T05:30:28.462Z,99.99
2022-09-26T05:35:28.440Z,99.99
2022-09-26T05:40:28.456Z,99.99
2022-09-26T05:45:28.299Z,99.99
2022-09-26T05:50:28.244Z,99.99
2022-09-26T05:55:28.310Z,99.99
2022-09-26T06:00:28.251Z,99.99
2022-09-26T06:05:28.088Z,99.99
2022-09-26T06:10:28.059Z,99.99
2022-09-26T06:15:27.998Z,99.99
2022-09-26T06:20:28.071Z,99.99
2022-09-26T06:25:27.944Z,99.99
2022-09-26T06:30:28.003Z,99.99
2022-09-26T06:35:27.820Z,99.99
2022-09-26T06:40:27.833Z,99.99
2022-09-26T06:45:27.653Z,99.99
2022-09-26T06:50:27.601Z,99.99
2022-09-26T06:55:27.571Z,99.99
2022-09-26T07:00:27.523Z,99.99
2022-09-26T07:05:27.442Z,99.99
2022-09-26T07:10:27.453Z,99.99
2022-09-26T07:15:27.342Z,99.99
2022-09-26T07:20:27.274Z,99.99
2022-09-26T07:25:27.224Z,99.99
2022-09-26T07:30:27.157Z,99.99
2022-09-26T07:35:27.129Z,99.99
2022-09-26T07:40:27.110Z,99.99
2022-09-26T07:45:29.792Z,99.99
2022-09-26T07:50:26.956Z,99.99
2022-09-26T07:55:26.914Z,99.99
2022-09-26T08:00:26.843Z,99.99
2022-09-26T08:05:26.790Z,99.99
2022-09-26T08:10:26.737Z,99.99
2022-09-26T08:15:26.699Z,99.99
2022-09-26T08:20:31.935Z,99.99
2022-09-26T08:25:27.570Z,99.99
2022-09-26T08:30:26.517Z,99.99
2022-09-26T08:35:26.483Z,99.99
2022-09-26T08:40:26.440Z,99.99
2022-09-26T08:45:26.354Z,99.99
2022-09-26T08:50:26.297Z,99.99
2022-09-26T08:55:26.266Z,99.99
2022-09-26T09:00:26.201Z,99.99
2022-09-26T09:05:26.272Z,99.99
2022-09-26T09:10:26.079Z,99.99
2022-09-26T09:15:26.752Z,99.99
2022-09-26T09:20:25.964Z,99.99
2022-09-26T09:25:25.913Z,99.99
2022-09-26T09:30:25.870Z,99.99
2022-09-26T09:35:25.825Z,99.99
2022-09-26T09:40:25.811Z,99.99
2022-09-26T09:45:25.701Z,99.99
2022-09-26T09:50:25.649Z,99.99
2022-09-26T09:55:25.619Z,99.99
2022-09-26T10:00:25.541Z,99.99
2022-09-26T10:05:25.492Z,99.99
2022-09-26T10:10:25.561Z,99.99
2022-09-26T10:15:25.397Z,99.99
2022-09-26T10:20:25.322Z,99.99
2022-09-26T10:25:25.274Z,99.99
2022-09-26T10:30:25.215Z,99.99
2022-09-26T10:35:25.201Z,99.99
2022-09-26T10:40:25.142Z,99.99
2022-09-26T10:45:25.055Z,99.99
2022-09-26T10:50:24.997Z,99.99
2022-09-26T10:55:24.967Z,99.99
2022-09-26T11:00:24.891Z,99.93
2022-09-26T11:05:24.847Z,99.41
2022-09-26T11:10:24.859Z,99.31
2022-09-26T11:15:24.732Z,99.11
2022-09-26T11:20:24.666Z,98.70
2022-09-26T11:25:24.611Z,97.88
2022-09-26T11:30:24.553Z,97.27
2022-09-26T11:35:24.526Z,97.06
2022-09-26T11:40:24.479Z,97.16
2022-09-26T11:45:24.392Z,97.16
2022-09-26T11:50:24.335Z,96.96
2022-09-26T11:55:24.388Z,97.16
2022-09-26T12:00:24.270Z,97.27
2022-09-26T12:05:27.049Z,97.78
2022-09-26T12:10:24.228Z,99.11
2022-09-26T12:15:24.076Z,99.11
2022-09-26T12:20:24.003Z,99.11
2022-09-26T12:25:23.947Z,99.01
2022-09-26T12:30:23.890Z,99.11
2022-09-26T12:35:23.857Z,99.01
2022-09-26T12:40:23.852Z,99.99
2022-09-26T12:45:23.718Z,99.99
2022-09-26T12:50:23.661Z,99.99
2022-09-26T12:55:23.627Z,99.99
2022-09-26T13:00:23.563Z,99.99
2022-09-26T13:05:23.501Z,99.99
2022-09-26T13:10:23.442Z,99.99
2022-09-26T13:15:23.509Z,99.99
2022-09-26T13:20:23.338Z,99.99
2022-09-26T13:25:23.278Z,99.99
2022-09-26T13:30:23.226Z,99.99
2022-09-26T13:35:23.233Z,99.99
2022-09-26T13:40:23.154Z,99.99
2022-09-26T13:45:23.067Z,99.99
2022-09-26T13:50:23.012Z,99.99
2022-09-26T13:55:22.972Z,99.99
2022-09-26T14:00:22.902Z,99.99
2022-09-26T14:05:22.847Z,99.99
2022-09-26T14:10:22.792Z,99.99
2022-09-26T14:15:22.768Z,99.99
2022-09-26T14:20:22.685Z,99.99
2022-09-26T14:25:22.629Z,99.99
2022-09-26T14:30:22.587Z,99.99
2022-09-26T14:35:22.544Z,99.99
2022-09-26T14:40:22.561Z,99.99
2022-09-26T14:45:22.416Z,99.99
2022-09-26T14:50:22.361Z,99.99
2022-09-26T14:55:22.328Z,99.99
2022-09-26T15:00:22.254Z,99.99
2022-09-26T15:05:22.200Z,99.99
2022-09-26T15:10:22.154Z,99.99
2022-09-26T15:15:22.116Z,99.99
2022-09-26T15:20:22.038Z,99.99
2022-09-26T15:25:21.984Z,99.99
2022-09-26T15:30:21.927Z,99.99
2022-09-26T15:35:21.896Z,99.99
2022-09-26T15:40:21.872Z,99.99
2022-09-26T15:45:21.771Z,99.99
2022-09-26T15:50:21.731Z,99.99
2022-09-26T15:55:21.691Z,99.99
2022-09-26T16:00:21.611Z,99.99
2022-09-26T16:05:21.555Z,99.99
2022-09-26T16:10:21.503Z,99.99
2022-09-26T16:15:21.473Z,99.99
2022-09-26T16:20:21.424Z,99.99
2022-09-26T16:25:21.343Z,99.99
2022-09-26T16:30:21.288Z,99.99
2022-09-26T16:35:23.858Z,99.99
2022-09-26T16:40:21.227Z,99.99
2022-09-26T16:45:21.133Z,99.99
2022-09-26T16:50:21.079Z,99.99
2022-09-26T16:55:21.052Z,99.99
2022-09-26T17:00:20.967Z,99.99
2022-09-26T17:05:20.923Z,99.99
2022-09-26T17:10:20.862Z,99.99
2022-09-26T17:15:20.827Z,99.99
2022-09-26T17:20:20.754Z,99.99
2022-09-26T17:25:20.700Z,99.99
2022-09-26T17:30:20.647Z,99.99
2022-09-26T17:35:20.617Z,99.99
2022-09-26T17:40:20.615Z,99.99
2022-09-26T17:45:20.486Z,99.99
2022-09-26T17:50:20.434Z,99.99
2022-09-26T17:55:20.401Z,99.99
2022-09-26T18:00:20.323Z,99.99
2022-09-26T18:05:20.280Z,99.99
2022-09-26T18:10:20.215Z,99.99
2022-09-26T18:15:20.186Z,99.99
2022-09-26T18:20:20.123Z,99.99
2022-09-26T18:25:20.057Z,99.99
2022-09-26T18:30:20.003Z,99.99
2022-09-26T18:35:19.975Z,99.99
2022-09-26T18:40:20.105Z,99.99
2022-09-26T18:45:19.848Z,99.99
2022-09-26T18:50:19.793Z,99.99
2022-09-26T18:55:19.760Z,99.99
2022-09-26T19:00:19.684Z,99.99
2022-09-26T19:05:19.640Z,99.99
2022-09-26T19:10:19.573Z,99.99
2022-09-26T19:15:19.545Z,99.99
2022-09-26T19:20:19.476Z,99.99
2022-09-26T19:25:19.431Z,99.99
2022-09-26T19:30:19.364Z,99.99
2022-09-26T19:35:19.335Z,99.99
2022-09-26T19:40:19.316Z,99.99
2022-09-26T19:45:19.205Z,99.99
2022-09-26T19:50:19.151Z,99.99
2022-09-26T19:55:19.115Z,99.99
2022-09-26T20:00:19.043Z,99.99
2022-09-26T20:05:18.988Z,99.99
2022-09-26T20:10:18.936Z,99.99
2022-09-26T20:15:18.906Z,99.99
2022-09-26T20:20:18.835Z,99.99
2022-09-26T20:25:20.014Z,99.99
2022-09-26T20:30:18.728Z,99.99
2022-09-26T20:35:18.693Z,99.99
2022-09-26T20:40:18.755Z,99.99
2022-09-26T20:45:18.565Z,99.99
2022-09-26T20:50:18.505Z,99.99
2022-09-26T20:55:18.477Z,99.99
2022-09-26T21:00:18.398Z,99.99
2022-09-26T21:05:18.343Z,99.99
2022-09-26T21:10:18.289Z,99.99
2022-09-26T21:15:18.304Z,99.99
2022-09-26T21:20:18.171Z,99.99
2022-09-26T21:25:18.134Z,99.99
2022-09-26T21:30:18.089Z,99.99
2022-09-26T21:35:18.034Z,99.99
2022-09-26T21:40:17.989Z,99.99
2022-09-26T21:45:18.031Z,99.99
2022-09-26T21:50:17.852Z,99.99
2022-09-26T21:55:17.832Z,99.99
2022-09-26T22:00:17.759Z,99.99
2022-09-26T22:05:17.701Z,99.99
2022-09-26T22:10:17.649Z,99.99
2022-09-26T22:15:17.619Z,99.99
2022-09-26T22:20:24.581Z,99.99
2022-09-26T22:25:17.487Z,99.99
2022-09-26T22:30:17.440Z,99.99
2022-09-26T22:35:17.404Z,99.99
2022-09-26T22:40:17.394Z,99.99
2022-09-26T22:45:17.272Z,99.99
2022-09-26T22:50:17.218Z,99.99
2022-09-26T22:55:17.203Z,99.99
2022-09-26T23:00:17.110Z,99.99
2022-09-26T23:05:17.056Z,99.99
2022-09-26T23:10:17.005Z,99.99
2022-09-26T23:15:16.972Z,99.99
2022-09-26T23:20:16.909Z,99.99
2022-09-26T23:25:16.848Z,99.99
